Time;durP1;ratioP1;P1;durP2;ratioP2;P2;SDS_P1;SDS_P2;PMS_P1;PMS_P2;Temp;Humidity;BMP_temperature;BMP_pressure;BME280_temperature;BME280_humidity;BME280_pressure;Samples;Min_cycle;Max_cycle;Signal;HPM_P1;HPM_P2
2022/05/06 00:00:06;;;;;;;9.40;8.50;;;17.00;82.10;;;;;;4843507;29;20958;-84
2022/05/06 00:02:33;;;;;;;10.30;9.40;;;17.10;82.10;;;;;;4839817;29;20478;-84
2022/05/06 00:04:59;;;;;;;9.30;8.33;;;17.30;82.10;;;;;;4867778;29;20477;-84
2022/05/06 00:07:28;;;;;;;9.80;8.30;;;17.20;83.20;;;;;;4849516;29;20466;-86
2022/05/06 00:09:55;;;;;;;11.13;9.83;;;17.00;85.00;;;;;;4836151;29;20469;-82
2022/05/06 00:12:23;;;;;;;12.67;8.50;;;16.90;86.00;;;;;;4842469;29;20513;-83
2022/05/06 00:14:50;;;;;;;9.10;8.30;;;16.70;87.10;;;;;;4841652;29;20462;-82
2022/05/06 00:17:22;;;;;;;8.50;7.70;;;16.60;87.70;;;;;;4847589;29;20471;-84
2022/05/06 00:19:49;;;;;;;9.77;8.40;;;16.60;88.50;;;;;;4840125;29;20559;-84
2022/05/06 00:22:16;;;;;;;12.93;9.30;;;16.70;88.60;;;;;;4837391;29;20492;-83
2022/05/06 00:24:44;;;;;;;8.40;7.60;;;16.70;88.90;;;;;;4841432;29;20549;-84
2022/05/06 00:27:11;;;;;;;11.50;10.50;;;16.90;89.30;;;;;;4844572;29;20462;-83
2022/05/06 00:29:38;;;;;;;14.13;9.50;;;16.90;90.00;;;;;;4845554;29;20815;-83
2022/05/06 00:32:07;;;;;;;10.90;9.90;;;16.80;90.10;;;;;;4852953;29;20475;-84
2022/05/06 00:34:36;;;;;;;11.23;9.70;;;16.50;90.60;;;;;;4847616;29;20472;-84
2022/05/06 00:37:17;;;;;;;9.77;8.83;;;16.20;91.10;;;;;;4844628;29;20454;-84
2022/05/06 00:39:43;;;;;;;10.37;9.37;;;16.10;91.70;;;;;;4850122;29;21088;-85
2022/05/06 00:42:14;;;;;;;9.53;8.63;;;15.90;92.00;;;;;;4843862;29;20479;-85
2022/05/06 00:44:51;;;;;;;8.83;7.93;;;15.80;92.10;;;;;;4839794;29;20543;-83
2022/05/06 00:47:22;;;;;;;11.50;8.47;;;15.80;92.50;;;;;;4849306;29;20427;-85
2022/05/06 00:49:53;;;;;;;11.93;8.03;;;15.70;91.90;;;;;;4852912;29;20466;-85
2022/05/06 00:52:22;;;;;;;8.90;7.73;;;15.60;91.90;;;;;;4844979;29;20483;-88
2022/05/06 00:54:54;;;;;;;8.73;7.87;;;15.70;92.00;;;;;;4846142;29;20542;-86
2022/05/06 00:57:22;;;;;;;9.50;8.53;;;15.80;91.80;;;;;;4850844;29;20454;-83
2022/05/06 01:02:37;;;;;;;8.60;7.60;;;15.90;90.30;;;;;;4843771;29;20490;-85
2022/05/06 01:05:05;;;;;;;9.00;7.53;;;15.80;89.70;;;;;;4850971;29;20466;-83
2022/05/06 01:07:32;;;;;;;9.77;8.10;;;15.90;90.60;;;;;;4846358;29;20454;-86
2022/05/06 01:09:59;;;;;;;8.43;7.60;;;15.80;90.70;;;;;;4850190;29;20455;-84
2022/05/06 01:12:26;;;;;;;9.50;8.60;;;15.80;91.50;;;;;;4860363;29;20543;-84
2022/05/06 01:14:52;;;;;;;11.20;8.93;;;15.70;92.10;;;;;;4856269;29;20461;-86
2022/05/06 01:17:19;;;;;;;11.70;8.77;;;15.60;92.50;;;;;;4854415;29;20453;-84
2022/05/06 01:19:46;;;;;;;10.60;8.17;;;15.40;92.90;;;;;;4846495;29;20549;-84
2022/05/06 01:22:13;;;;;;;8.97;8.07;;;15.30;92.90;;;;;;4849857;29;20482;-85
2022/05/06 01:24:39;;;;;;;9.60;8.70;;;15.10;93.10;;;;;;4839834;29;20464;-84
2022/05/06 01:27:22;;;;;;;9.60;8.70;;;14.90;93.30;;;;;;4849645;29;20462;-82
2022/05/06 01:29:51;;;;;;;10.80;9.13;;;14.80;93.40;;;;;;4839943;29;20527;-84
2022/05/06 01:32:22;;;;;;;9.80;8.67;;;14.80;93.20;;;;;;4844266;29;20475;-85
2022/05/06 01:34:50;;;;;;;9.10;8.10;;;14.80;93.30;;;;;;4843136;29;21257;-83
2022/05/06 01:37:19;;;;;;;9.27;8.30;;;14.80;93.70;;;;;;4850126;29;20454;-84
2022/05/06 01:39:52;;;;;;;12.20;8.33;;;14.80;93.40;;;;;;4846358;29;20487;-83
2022/05/06 01:42:21;;;;;;;10.27;7.93;;;15.00;93.70;;;;;;4834516;29;20501;-83
2022/05/06 01:44:51;;;;;;;10.37;8.87;;;15.00;93.70;;;;;;4833766;29;20551;-84
2022/05/06 01:47:21;;;;;;;9.53;8.63;;;15.10;93.70;;;;;;4849314;29;20459;-84
2022/05/06 01:49:50;;;;;;;8.43;7.63;;;15.20;93.60;;;;;;4850368;29;20482;-85
2022/05/06 01:52:17;;;;;;;8.73;7.83;;;15.10;93.60;;;;;;4849124;29;20478;-85
2022/05/06 01:54:45;;;;;;;8.67;7.80;;;15.10;93.50;;;;;;4845925;29;20558;-81
2022/05/06 01:57:12;;;;;;;9.40;8.43;;;15.00;93.40;;;;;;4838223;29;20465;-82
2022/05/06 01:59:38;;;;;;;9.23;8.33;;;15.00;93.10;;;;;;4848319;29;20455;-82
2022/05/06 02:02:05;;;;;;;12.73;8.33;;;15.10;93.30;;;;;;4845814;29;21011;-82
2022/05/06 02:07:17;;;;;;;10.20;9.20;;;15.20;93.50;;;;;;4846180;29;20539;-83
2022/05/06 02:09:44;;;;;;;11.43;8.80;;;15.00;93.60;;;;;;4849925;29;20468;-82
2022/05/06 02:12:13;;;;;;;9.43;8.43;;;14.90;94.00;;;;;;4840658;29;20481;-82
2022/05/06 02:14:40;;;;;;;10.03;9.03;;;14.80;94.00;;;;;;4840406;29;20458;-82
2022/05/06 02:17:09;;;;;;;8.83;7.63;;;14.50;94.20;;;;;;4837575;29;20451;-82
2022/05/06 02:19:40;;;;;;;10.07;8.20;;;14.50;94.90;;;;;;4851104;29;20470;-85
2022/05/06 02:22:12;;;;;;;9.30;8.07;;;14.50;94.80;;;;;;4846353;29;20578;-84
2022/05/06 02:24:45;;;;;;;10.03;8.53;;;14.60;94.60;;;;;;4869248;29;20469;-84
2022/05/06 02:27:15;;;;;;;9.40;8.43;;;14.50;94.30;;;;;;4862095;29;20463;-85
2022/05/06 02:35:21;;;;;;;11.20;10.17;;;14.30;94.60;;;;;;4835775;29;20929;-82
2022/05/06 02:37:47;;;;;;;11.60;8.50;;;14.20;94.90;;;;;;4853624;29;20454;-88
2022/05/06 02:40:14;;;;;;;8.80;7.97;;;14.20;95.10;;;;;;4841392;29;20490;-83
2022/05/06 02:42:41;;;;;;;10.17;8.10;;;14.30;95.00;;;;;;4835469;29;20574;-83
2022/05/06 02:45:08;;;;;;;9.30;8.40;;;14.30;94.90;;;;;;4838666;29;20533;-84
2022/05/06 02:47:35;;;;;;;8.70;7.90;;;14.10;94.90;;;;;;4844664;29;20840;-83
2022/05/06 02:50:02;;;;;;;9.90;8.33;;;14.10;95.10;;;;;;4856443;29;20664;-83
2022/05/06 02:52:29;;;;;;;8.73;8.00;;;14.00;95.10;;;;;;4847072;29;20487;-84
2022/05/06 02:54:56;;;;;;;9.80;7.93;;;13.90;95.10;;;;;;4832387;29;20463;-84
2022/05/06 02:57:24;;;;;;;8.87;7.97;;;14.00;95.10;;;;;;4842080;29;20446;-84
2022/05/06 02:59:50;;;;;;;8.70;7.87;;;13.90;94.90;;;;;;4847778;29;20803;-83
2022/05/06 03:02:17;;;;;;;10.27;8.60;;;13.80;94.90;;;;;;4844736;29;20491;-83
2022/05/06 03:04:44;;;;;;;9.97;9.00;;;13.70;95.00;;;;;;4838661;29;20495;-82
2022/05/06 03:07:11;;;;;;;9.03;8.13;;;13.80;95.10;;;;;;4847033;29;20451;-83
2022/05/06 03:09:40;;;;;;;10.60;7.23;;;13.70;95.30;;;;;;4846298;29;20462;-82
2022/05/06 03:12:10;;;;;;;10.80;8.17;;;13.70;95.40;;;;;;4847481;29;20474;-83
2022/05/06 03:14:37;;;;;;;9.70;8.00;;;13.50;95.50;;;;;;4846918;29;20918;-83
2022/05/06 03:17:04;;;;;;;9.70;8.70;;;13.40;96.10;;;;;;4845402;29;20467;-83
2022/05/06 03:19:31;;;;;;;10.93;8.60;;;13.50;96.00;;;;;;4834376;29;20538;-83
2022/05/06 03:21:58;;;;;;;10.20;9.07;;;13.40;96.00;;;;;;4833832;29;20586;-82
2022/05/06 03:24:25;;;;;;;9.10;8.03;;;13.60;95.90;;;;;;4848747;29;20511;-82
2022/05/06 03:26:52;;;;;;;11.53;10.37;;;13.50;95.70;;;;;;4841012;29;21180;-83
2022/05/06 03:29:19;;;;;;;9.13;8.03;;;13.30;95.90;;;;;;4841516;29;20467;-83
2022/05/06 03:31:46;;;;;;;11.27;8.13;;;13.30;96.40;;;;;;4839547;29;20505;-83
2022/05/06 03:34:13;;;;;;;12.57;9.70;;;13.40;96.20;;;;;;4842184;29;20458;-84
2022/05/06 03:36:40;;;;;;;12.10;8.13;;;13.50;96.20;;;;;;4839516;29;20465;-83
2022/05/06 03:39:10;;;;;;;11.90;8.57;;;13.40;96.20;;;;;;4863229;29;20519;-86
2022/05/06 03:41:37;;;;;;;18.73;10.00;;;13.40;96.30;;;;;;4858414;29;20532;-83
2022/05/06 03:44:06;;;;;;;15.77;9.30;;;13.40;96.50;;;;;;4860198;29;20496;-85
2022/05/06 03:46:34;;;;;;;18.03;9.73;;;13.40;96.60;;;;;;4859361;29;20497;-84
2022/05/06 03:49:01;;;;;;;15.63;9.23;;;13.50;96.60;;;;;;4853667;29;20453;-85
2022/05/06 03:51:29;;;;;;;16.40;9.47;;;13.70;96.40;;;;;;4841711;29;20463;-83
2022/05/06 03:53:57;;;;;;;14.93;11.33;;;13.70;96.30;;;;;;4850812;29;20481;-83
2022/05/06 03:56:24;;;;;;;10.27;9.03;;;13.60;96.40;;;;;;4858090;29;20466;-85
2022/05/06 03:58:52;;;;;;;13.27;8.53;;;13.50;96.60;;;;;;4849469;29;20450;-84
2022/05/06 04:01:19;;;;;;;10.53;8.87;;;13.40;96.80;;;;;;4851197;29;20487;-85
2022/05/06 04:03:47;;;;;;;14.47;10.00;;;13.40;97.20;;;;;;4849383;29;20474;-86
2022/05/06 04:06:14;;;;;;;14.20;10.20;;;13.50;96.70;;;;;;4854999;29;20478;-85
2022/05/06 04:08:42;;;;;;;13.00;10.33;;;13.30;96.60;;;;;;4854816;29;21063;-84
2022/05/06 04:11:10;;;;;;;15.87;10.30;;;13.40;96.70;;;;;;4862062;29;20489;-85
2022/05/06 04:13:37;;;;;;;19.40;10.67;;;13.30;96.60;;;;;;4857393;29;20472;-86
2022/05/06 04:16:04;;;;;;;20.03;11.23;;;13.30;96.50;;;;;;4863466;29;20454;-83
2022/05/06 04:18:31;;;;;;;12.93;10.40;;;13.30;96.60;;;;;;4847177;29;20475;-83
2022/05/06 04:23:44;;;;;;;19.40;11.20;;;13.10;97.20;;;;;;4854399;29;20968;-84
2022/05/06 04:26:11;;;;;;;21.30;11.17;;;13.20;97.20;;;;;;4851649;29;20460;-84
2022/05/06 04:28:39;;;;;;;14.83;11.30;;;13.30;96.60;;;;;;4864242;29;20458;-85
2022/05/06 04:31:07;;;;;;;17.60;11.20;;;13.30;96.30;;;;;;4864349;29;20454;-85
2022/05/06 04:33:36;;;;;;;21.33;10.83;;;13.00;96.40;;;;;;4862298;29;20761;-84
2022/05/06 04:36:04;;;;;;;22.83;10.87;;;13.00;96.80;;;;;;4859919;29;20462;-85
2022/05/06 04:38:30;;;;;;;19.50;12.00;;;13.00;96.80;;;;;;4845114;29;20555;-83
2022/05/06 04:41:01;;;;;;;11.97;10.13;;;13.00;96.60;;;;;;4853980;29;20494;-85
2022/05/06 04:43:28;;;;;;;14.40;11.17;;;12.90;96.80;;;;;;4853977;29;20482;-84
2022/05/06 04:45:55;;;;;;;16.67;10.30;;;12.80;97.00;;;;;;4848365;29;20750;-85
2022/05/06 04:48:25;;;;;;;31.63;12.00;;;12.80;97.20;;;;;;4839433;29;20460;-84
2022/05/06 04:51:04;;;;;;;22.13;12.30;;;12.70;97.40;;;;;;4853426;29;20968;-85
2022/05/06 04:53:31;;;;;;;19.90;11.87;;;12.60;97.70;;;;;;4856895;29;20494;-84
2022/05/06 04:55:57;;;;;;;14.90;10.43;;;12.70;97.80;;;;;;4852337;29;20455;-86
2022/05/06 04:58:24;;;;;;;15.00;12.00;;;12.90;97.60;;;;;;4860633;29;20443;-85
2022/05/06 05:00:53;;;;;;;12.43;10.30;;;12.90;97.40;;;;;;4856868;29;20486;-84
2022/05/06 05:03:22;;;;;;;12.73;11.43;;;12.70;97.50;;;;;;4864967;29;20458;-85
2022/05/06 05:05:50;;;;;;;14.50;11.03;;;12.70;97.90;;;;;;4879887;29;20529;-80
2022/05/06 05:08:16;;;;;;;13.00;11.60;;;12.70;98.20;;;;;;4856417;29;20453;-85
2022/05/06 05:10:43;;;;;;;17.37;11.10;;;12.80;98.00;;;;;;4866003;29;20444;-84
2022/05/06 05:13:10;;;;;;;11.90;10.70;;;12.90;97.90;;;;;;4854829;29;20530;-85
2022/05/06 05:15:39;;;;;;;11.60;10.20;;;12.80;98.00;;;;;;4848841;29;20463;-85
2022/05/06 05:18:06;;;;;;;11.77;10.57;;;12.80;98.30;;;;;;4860763;29;20461;-86
2022/05/06 05:20:33;;;;;;;12.30;11.00;;;13.10;97.90;;;;;;4852459;29;20434;-86
2022/05/06 05:23:00;;;;;;;11.73;10.53;;;13.10;97.50;;;;;;4851294;29;20475;-86
2022/05/06 05:25:27;;;;;;;13.70;12.27;;;13.10;97.50;;;;;;4860626;29;20521;-83
2022/05/06 05:27:53;;;;;;;13.50;12.10;;;13.00;97.70;;;;;;4854304;29;20470;-87
2022/05/06 05:30:20;;;;;;;14.40;12.90;;;13.00;97.90;;;;;;4858502;29;20458;-87
2022/05/06 05:32:46;;;;;;;16.87;12.53;;;12.90;97.90;;;;;;4860564;29;20463;-83
2022/05/06 05:35:13;;;;;;;13.27;11.67;;;12.90;98.10;;;;;;4872771;29;20472;-87
2022/05/06 05:37:40;;;;;;;12.97;11.67;;;12.90;98.10;;;;;;4862601;29;20481;-84
2022/05/06 05:40:07;;;;;;;15.70;13.10;;;12.90;98.40;;;;;;4865316;29;20505;-85
2022/05/06 05:42:34;;;;;;;15.70;12.20;;;13.00;98.30;;;;;;4864507;29;20578;-82
2022/05/06 05:50:31;;;;;;;15.60;13.93;;;13.20;98.10;;;;;;4850857;29;20434;-84
2022/05/06 05:52:58;;;;;;;17.40;15.60;;;13.30;97.50;;;;;;4849404;29;20538;-82
2022/05/06 05:55:25;;;;;;;16.97;14.83;;;13.40;97.60;;;;;;4859864;29;20450;-84
2022/05/06 05:57:51;;;;;;;19.23;14.40;;;13.40;97.40;;;;;;4851215;29;20472;-85
2022/05/06 06:00:20;;;;;;;17.20;14.90;;;13.50;97.40;;;;;;4849053;29;20462;-84
2022/05/06 06:02:46;;;;;;;16.60;14.73;;;13.60;97.20;;;;;;4853791;29;21081;-85
2022/05/06 06:05:13;;;;;;;19.70;14.10;;;13.60;97.10;;;;;;4855438;29;20459;-85
2022/05/06 06:07:40;;;;;;;16.30;14.57;;;13.50;97.10;;;;;;4855109;29;20806;-84
2022/05/06 06:10:07;;;;;;;19.90;14.97;;;13.60;97.20;;;;;;4847213;29;20466;-84
2022/05/06 06:12:34;;;;;;;17.30;13.40;;;13.60;97.50;;;;;;4839530;29;20471;-84
2022/05/06 06:15:01;;;;;;;19.73;14.93;;;13.70;97.10;;;;;;4843843;29;20864;-84
2022/05/06 06:17:28;;;;;;;21.20;16.17;;;13.90;96.80;;;;;;4838513;29;20476;-83
2022/05/06 06:19:55;;;;;;;18.67;16.63;;;13.90;96.60;;;;;;4849561;29;20515;-85
2022/05/06 06:22:22;;;;;;;18.33;15.63;;;14.10;96.60;;;;;;4863970;29;20522;-84
2022/05/06 06:24:49;;;;;;;16.97;15.27;;;14.30;96.20;;;;;;4848091;29;20472;-84
2022/05/06 06:27:17;;;;;;;18.10;16.23;;;14.50;95.70;;;;;;4851067;29;20481;-84
2022/05/06 06:29:44;;;;;;;19.77;17.67;;;14.60;95.20;;;;;;4849186;29;20482;-83
2022/05/06 06:32:10;;;;;;;20.87;17.03;;;14.60;95.20;;;;;;4850263;29;20492;-82
2022/05/06 06:34:37;;;;;;;20.27;18.10;;;14.70;95.10;;;;;;4845388;29;20494;-84
2022/05/06 06:37:04;;;;;;;19.63;17.33;;;14.70;95.30;;;;;;4842862;29;20553;-84
2022/05/06 06:39:31;;;;;;;25.07;17.97;;;14.80;95.10;;;;;;4847120;29;20462;-84
2022/05/06 06:41:57;;;;;;;21.87;18.63;;;15.00;94.80;;;;;;4833827;29;21025;-85
2022/05/06 06:44:24;;;;;;;21.10;18.03;;;15.00;94.60;;;;;;4844591;29;20546;-84
2022/05/06 06:46:53;;;;;;;19.70;17.70;;;15.00;94.50;;;;;;4840979;29;20473;-84
2022/05/06 06:49:20;;;;;;;21.20;18.60;;;15.00;94.50;;;;;;4859203;29;20459;-83
2022/05/06 06:51:47;;;;;;;22.87;19.97;;;15.00;94.70;;;;;;4844394;29;20474;-84
2022/05/06 06:54:14;;;;;;;22.53;19.20;;;15.10;94.60;;;;;;4845350;29;20447;-85
2022/05/06 06:56:41;;;;;;;22.23;18.53;;;15.10;94.70;;;;;;4836924;29;20559;-84
2022/05/06 06:59:08;;;;;;;23.10;20.20;;;15.20;94.50;;;;;;4845356;29;20474;-84
2022/05/06 07:01:37;;;;;;;22.50;19.67;;;15.10;94.60;;;;;;4842031;29;20486;-82
2022/05/06 07:04:04;;;;;;;24.40;19.83;;;15.20;94.70;;;;;;4847730;29;20482;-83
2022/05/06 07:12:02;;;;;;;23.60;20.50;;;15.30;94.70;;;;;;4845426;29;20472;-84
2022/05/06 07:14:29;;;;;;;24.00;20.10;;;15.50;94.40;;;;;;4838678;29;20470;-84
2022/05/06 07:16:56;;;;;;;23.07;19.47;;;15.80;93.80;;;;;;4835317;29;20466;-85
2022/05/06 07:19:23;;;;;;;23.40;20.83;;;16.10;92.80;;;;;;4852797;29;20531;-83
2022/05/06 07:21:51;;;;;;;25.73;21.87;;;16.60;92.20;;;;;;4852661;29;20494;-85
2022/05/06 07:24:19;;;;;;;29.70;21.67;;;16.90;91.10;;;;;;4850977;29;20991;-84
2022/05/06 07:26:49;;;;;;;28.93;22.37;;;17.10;90.40;;;;;;4850911;29;20980;-84
2022/05/06 07:29:16;;;;;;;25.20;22.60;;;17.30;90.50;;;;;;4852051;29;20473;-84
2022/05/06 07:31:43;;;;;;;25.53;22.83;;;17.70;88.90;;;;;;4844498;29;20462;-85
2022/05/06 07:34:15;;;;;;;24.53;20.97;;;18.40;85.90;;;;;;4840112;29;20462;-86
2022/05/06 07:36:43;;;;;;;28.20;23.57;;;19.00;82.30;;;;;;4845575;29;20476;-82
2022/05/06 07:39:10;;;;;;;25.60;22.73;;;19.20;79.50;;;;;;4846297;29;20469;-84
2022/05/06 07:41:38;;;;;;;24.87;22.20;;;20.00;76.50;;;;;;4844470;29;20490;-83
2022/05/06 07:44:06;;;;;;;26.63;23.87;;;21.00;72.40;;;;;;4847738;29;20550;-85
2022/05/06 07:46:34;;;;;;;26.40;22.27;;;22.60;65.60;;;;;;4866482;29;20469;-85
2022/05/06 07:49:02;;;;;;;27.73;22.90;;;23.90;61.60;;;;;;4845472;29;20563;-84
2022/05/06 07:51:28;;;;;;;24.00;21.60;;;25.20;57.40;;;;;;4849949;29;20459;-83
2022/05/06 07:53:56;;;;;;;24.47;21.97;;;25.50;56.20;;;;;;4845102;29;20467;-84
2022/05/06 07:56:24;;;;;;;24.10;21.80;;;26.80;53.30;;;;;;4854379;29;20462;-85
2022/05/06 07:58:51;;;;;;;25.93;23.27;;;27.00;52.10;;;;;;4852020;29;20451;-83
2022/05/06 08:04:32;;;;;;;27.00;24.40;;;26.70;51.70;;;;;;4850763;29;20490;-84
2022/05/06 08:06:52;;;;;;;24.33;21.93;;;26.90;51.00;;;;;;4847166;29;21095;-86
2022/05/06 08:09:22;;;;;;;24.40;22.00;;;26.50;51.40;;;;;;4848030;29;20487;-85
2022/05/06 08:11:49;;;;;;;23.33;21.23;;;27.60;49.90;;;;;;4841439;29;20466;-85
2022/05/06 08:14:18;;;;;;;24.40;22.00;;;27.90;48.90;;;;;;4840201;29;20454;-84
2022/05/06 08:16:48;;;;;;;24.90;22.27;;;28.30;47.70;;;;;;4852622;29;20467;-83
2022/05/06 08:19:16;;;;;;;24.17;21.80;;;28.50;46.90;;;;;;4847098;29;20474;-85
2022/05/06 08:21:48;;;;;;;26.37;23.63;;;28.20;46.50;;;;;;4851033;29;20454;-86
2022/05/06 08:24:15;;;;;;;24.40;21.87;;;27.60;47.50;;;;;;4844082;29;20440;-84
2022/05/06 08:26:43;;;;;;;24.83;22.10;;;27.50;47.80;;;;;;4856130;29;20827;-83
2022/05/06 08:29:10;;;;;;;22.03;19.70;;;28.30;45.80;;;;;;4855129;29;20466;-85
2022/05/06 08:31:40;;;;;;;23.37;20.97;;;28.30;44.90;;;;;;4855719;29;20455;-84
2022/05/06 08:34:11;;;;;;;23.17;20.87;;;28.10;45.30;;;;;;4847814;29;20478;-85
2022/05/06 08:36:41;;;;;;;22.47;20.27;;;28.80;44.10;;;;;;4852265;29;20466;-84
2022/05/06 08:39:10;;;;;;;23.13;21.03;;;28.80;43.10;;;;;;4853199;29;20466;-85
2022/05/06 08:41:36;;;;;;;23.80;21.40;;;28.60;43.40;;;;;;4854860;29;20532;-83
2022/05/06 08:52:33;;;;;;;26.63;22.70;;;28.70;43.30;;;;;;4848242;29;20561;-84
2022/05/06 08:55:04;;;;;;;25.13;22.63;;;28.60;44.00;;;;;;4848955;29;20465;-84
2022/05/06 08:57:35;;;;;;;23.27;20.93;;;28.70;44.20;;;;;;4851605;29;20467;-84
2022/05/06 09:00:04;;;;;;;25.17;22.53;;;29.20;43.60;;;;;;4850127;29;20466;-83
2022/05/06 09:02:30;;;;;;;23.33;21.23;;;29.40;42.70;;;;;;4848103;29;20495;-85
2022/05/06 09:04:58;;;;;;;23.07;20.73;;;29.10;42.20;;;;;;4834977;29;20615;-84
2022/05/06 09:07:25;;;;;;;23.50;21.07;;;29.40;41.50;;;;;;4847996;29;20469;-81
2022/05/06 09:10:14;;;;;;;25.20;22.50;;;29.30;41.80;;;;;;4856297;29;20454;-85
2022/05/06 09:12:44;;;;;;;23.77;21.37;;;29.50;41.70;;;;;;4855618;29;20510;-84
2022/05/06 09:18:03;;;;;;;20.27;18.27;;;30.60;39.40;;;;;;4847197;29;20450;-85
2022/05/06 09:20:30;;;;;;;21.80;19.70;;;31.00;38.10;;;;;;4849457;29;20473;-86
2022/05/06 09:22:57;;;;;;;21.23;19.20;;;30.90;37.70;;;;;;4849378;29;20490;-83
2022/05/06 09:25:52;;;;;;;19.07;16.93;;;31.00;37.40;;;;;;4833307;29;20459;-83
2022/05/06 09:28:24;;;;;;;16.33;14.73;;;31.20;36.00;;;;;;4828426;29;20423;-85
2022/05/06 09:31:08;;;;;;;14.50;13.10;;;31.00;35.00;;;;;;4835455;29;20474;-83
2022/05/06 09:33:40;;;;;;;16.60;14.90;;;31.00;34.70;;;;;;4845016;29;21020;-82
2022/05/06 09:36:29;;;;;;;16.57;14.93;;;30.90;35.30;;;;;;4843502;29;20534;-85
2022/05/06 09:39:14;;;;;;;14.40;12.90;;;31.30;35.00;;;;;;4833986;29;20458;-83
2022/05/06 09:41:41;;;;;;;15.90;14.30;;;31.40;33.80;;;;;;4839545;29;20443;-84
2022/05/06 09:44:12;;;;;;;15.20;13.80;;;31.60;32.90;;;;;;4843029;29;20478;-83
2022/05/06 09:46:38;;;;;;;13.97;12.40;;;31.40;32.80;;;;;;4850746;29;20454;-83
2022/05/06 09:49:07;;;;;;;13.77;12.50;;;31.20;32.80;;;;;;4851742;29;20458;-86
2022/05/06 09:51:54;;;;;;;14.60;13.03;;;31.00;33.30;;;;;;4844035;29;20601;-81
2022/05/06 09:54:32;;;;;;;17.53;14.50;;;30.50;34.30;;;;;;4838823;29;20486;-84
2022/05/06 09:57:00;;;;;;;14.17;12.87;;;30.30;35.30;;;;;;4831586;29;20451;-83
2022/05/06 09:59:28;;;;;;;15.23;13.73;;;30.50;34.80;;;;;;4859028;29;20802;-85
2022/05/06 10:01:58;;;;;;;16.10;14.50;;;30.10;35.00;;;;;;4840192;29;20478;-84
2022/05/06 10:04:29;;;;;;;15.63;14.00;;;29.70;35.20;;;;;;4832772;29;20528;-87
2022/05/06 10:07:01;;;;;;;16.07;14.60;;;30.00;35.00;;;;;;4848308;29;20526;-85
2022/05/06 10:09:37;;;;;;;17.27;15.17;;;31.30;33.40;;;;;;4844604;29;20494;-84
2022/05/06 10:12:06;;;;;;;16.83;15.13;;;31.70;32.40;;;;;;4850591;29;20490;-84
2022/05/06 10:14:34;;;;;;;18.67;13.77;;;30.50;33.60;;;;;;4851090;29;20476;-85
2022/05/06 10:17:01;;;;;;;13.60;12.37;;;29.70;34.80;;;;;;4845453;29;20471;-84
2022/05/06 10:19:45;;;;;;;12.73;11.63;;;29.00;35.80;;;;;;4845200;29;20470;-83
2022/05/06 10:22:13;;;;;;;14.53;13.03;;;28.30;36.70;;;;;;4845617;29;20482;-83
2022/05/06 10:24:50;;;;;;;16.10;14.60;;;28.20;36.50;;;;;;4847311;29;20478;-84
2022/05/06 10:33:18;;;;;;;15.30;13.93;;;27.80;37.70;;;;;;4845236;29;20945;-83
2022/05/06 10:35:48;;;;;;;14.30;13.20;;;28.20;38.00;;;;;;4845750;29;20450;-84
2022/05/06 10:38:22;;;;;;;15.17;13.57;;;28.50;37.00;;;;;;4850432;29;20462;-85
2022/05/06 10:40:57;;;;;;;13.83;12.70;;;29.50;36.80;;;;;;4849751;29;20442;-84
2022/05/06 10:43:50;;;;;;;13.50;12.40;;;29.00;35.50;;;;;;4846503;29;20512;-85
2022/05/06 10:46:34;;;;;;;11.90;10.80;;;27.80;36.00;;;;;;4853982;29;20478;-85
2022/05/06 10:49:38;;;;;;;15.53;11.90;;;28.90;34.90;;;;;;4853108;29;20454;-85
2022/05/06 10:52:20;;;;;;;14.87;12.40;;;28.50;35.40;;;;;;4852594;29;20525;-84
2022/05/06 10:54:48;;;;;;;11.80;10.60;;;27.70;36.40;;;;;;4846770;29;20454;-84
2022/05/06 10:57:16;;;;;;;12.13;11.10;;;28.20;37.10;;;;;;4862550;29;20466;-85
2022/05/06 11:00:02;;;;;;;13.97;12.67;;;29.10;35.90;;;;;;4849975;29;20446;-84
2022/05/06 11:02:30;;;;;;;11.70;9.67;;;29.70;34.60;;;;;;4858750;29;20477;-84
2022/05/06 11:04:59;;;;;;;11.23;10.23;;;28.40;35.20;;;;;;4855894;29;20470;-86
2022/05/06 11:07:28;;;;;;;12.17;10.80;;;27.70;35.90;;;;;;4847625;29;20534;-84
2022/05/06 11:09:56;;;;;;;10.60;9.30;;;27.00;37.20;;;;;;4852998;29;20534;-86
2022/05/06 11:12:35;;;;;;;10.27;9.40;;;27.80;36.80;;;;;;4854490;29;20502;-85
2022/05/06 11:15:05;;;;;;;11.57;10.50;;;29.30;35.40;;;;;;4853371;29;20467;-84
2022/05/06 11:17:32;;;;;;;13.10;11.93;;;29.60;34.70;;;;;;4853672;29;20434;-83
2022/05/06 11:20:01;;;;;;;13.10;11.93;;;29.90;34.30;;;;;;4848247;29;20473;-84
2022/05/06 11:22:27;;;;;;;11.60;10.60;;;29.50;34.70;;;;;;4853200;29;20569;-83
2022/05/06 11:24:57;;;;;;;12.97;11.67;;;29.20;34.60;;;;;;4846793;29;20447;-84
2022/05/06 11:27:25;;;;;;;14.20;12.57;;;28.20;35.70;;;;;;4840985;29;20442;-84
2022/05/06 11:29:58;;;;;;;13.90;12.50;;;27.20;37.00;;;;;;4844108;29;20494;-83
2022/05/06 11:32:29;;;;;;;11.83;10.20;;;26.20;38.30;;;;;;4850768;29;20613;-85
2022/05/06 11:35:11;;;;;;;10.77;9.67;;;25.80;39.30;;;;;;4847627;29;20459;-84
2022/05/06 11:37:41;;;;;;;11.33;10.20;;;26.20;39.30;;;;;;4835526;29;20551;-84
2022/05/06 11:42:52;;;;;;;10.97;9.77;;;26.30;38.30;;;;;;4846680;29;20490;-84
2022/05/06 11:48:11;;;;;;;8.00;7.30;;;27.20;36.80;;;;;;4841696;29;20494;-85
2022/05/06 11:50:40;;;;;;;9.37;8.50;;;27.00;35.40;;;;;;4856826;29;20458;-84
2022/05/06 11:53:08;;;;;;;9.27;8.00;;;26.80;35.80;;;;;;4844144;29;20487;-84
2022/05/06 11:55:41;;;;;;;9.87;7.40;;;27.40;35.90;;;;;;4850663;29;20953;-83
2022/05/06 11:58:12;;;;;;;6.13;5.63;;;28.60;34.60;;;;;;4857768;29;20445;-84
2022/05/06 12:00:40;;;;;;;5.83;5.33;;;28.30;33.70;;;;;;4859598;29;20467;-87
2022/05/06 12:03:12;;;;;;;5.57;5.10;;;28.10;33.30;;;;;;4865840;29;20477;-87
2022/05/06 12:06:00;;;;;;;6.53;6.03;;;27.40;34.10;;;;;;4853318;29;20520;-85
2022/05/06 12:09:10;;;;;;;7.63;4.90;;;27.90;32.80;;;;;;4863159;29;20479;-85
2022/05/06 12:12:13;;;;;;;9.13;8.30;;;27.60;32.50;;;;;;4863474;29;20450;-85
2022/05/06 12:15:10;;;;;;;7.93;6.60;;;26.90;34.50;;;;;;4842424;29;20533;-86
2022/05/06 12:17:46;;;;;;;8.90;8.10;;;26.30;35.90;;;;;;4850701;29;20527;-85
2022/05/06 12:20:43;;;;;;;9.47;8.73;;;26.50;37.30;;;;;;4835469;29;20439;-84
2022/05/06 12:23:14;;;;;;;10.03;9.10;;;27.20;37.00;;;;;;4839963;29;20490;-84
2022/05/06 12:25:42;;;;;;;10.20;9.20;;;27.00;36.10;;;;;;4846776;29;20457;-83
2022/05/06 12:28:10;;;;;;;11.17;10.17;;;26.50;36.10;;;;;;4840779;29;20478;-84
2022/05/06 12:30:38;;;;;;;13.17;11.93;;;26.10;37.20;;;;;;4848199;29;20518;-84
2022/05/06 12:33:11;;;;;;;11.90;10.87;;;25.70;39.20;;;;;;4851019;29;20537;-86
2022/05/06 12:35:58;;;;;;;14.87;12.40;;;25.60;39.80;;;;;;4847254;29;20454;-84
2022/05/06 12:38:44;;;;;;;13.03;11.47;;;25.60;39.90;;;;;;4840721;29;20482;-85
2022/05/06 12:41:21;;;;;;;9.70;8.80;;;25.50;39.70;;;;;;4845178;29;20545;-86
2022/05/06 12:43:49;;;;;;;10.90;9.50;;;25.30;39.10;;;;;;4842820;29;20586;-84
2022/05/06 12:46:26;;;;;;;12.53;11.07;;;25.20;39.10;;;;;;4837561;29;20521;-84
2022/05/06 12:51:42;;;;;;;9.20;8.40;;;25.40;39.10;;;;;;4841504;29;20462;-84
2022/05/06 12:54:09;;;;;;;10.73;9.60;;;25.80;38.20;;;;;;4838781;29;20502;-82
2022/05/06 12:56:37;;;;;;;12.57;11.37;;;26.00;37.60;;;;;;4845973;29;20450;-83
2022/05/06 12:59:08;;;;;;;11.70;10.50;;;26.10;37.70;;;;;;4845458;29;20988;-83
2022/05/06 13:01:35;;;;;;;11.90;10.80;;;26.30;38.00;;;;;;4836943;29;20519;-81
2022/05/06 13:04:03;;;;;;;10.70;9.80;;;26.40;37.10;;;;;;4840571;29;20577;-83
2022/05/06 13:06:31;;;;;;;10.23;9.23;;;26.30;36.70;;;;;;4846240;29;20482;-84
2022/05/06 13:09:01;;;;;;;11.10;10.00;;;26.40;36.90;;;;;;4846235;29;20554;-83
2022/05/06 13:11:30;;;;;;;11.10;10.03;;;26.30;37.50;;;;;;4833786;29;20554;-81
2022/05/06 13:13:59;;;;;;;14.30;11.53;;;26.30;37.50;;;;;;4842633;29;20487;-82
2022/05/06 13:16:26;;;;;;;11.40;10.23;;;26.30;37.40;;;;;;4835185;29;20447;-82
2022/05/06 13:18:53;;;;;;;11.50;10.40;;;26.10;37.70;;;;;;4840303;29;20459;-83
2022/05/06 13:21:21;;;;;;;10.80;9.80;;;26.20;38.00;;;;;;4831077;29;20543;-85
2022/05/06 13:23:48;;;;;;;9.70;8.80;;;26.60;37.40;;;;;;4840990;29;20517;-85
2022/05/06 13:26:15;;;;;;;8.57;7.77;;;26.70;36.90;;;;;;4828856;29;20463;-84
2022/05/06 13:28:42;;;;;;;9.30;8.50;;;27.30;36.90;;;;;;4836427;29;20490;-82
2022/05/06 13:31:10;;;;;;;8.97;8.20;;;27.70;35.70;;;;;;4840824;29;20455;-83
2022/05/06 13:33:38;;;;;;;9.43;8.27;;;27.40;35.80;;;;;;4841096;29;20497;-84
2022/05/06 13:36:05;;;;;;;8.87;8.00;;;27.00;35.80;;;;;;4844822;29;20469;-84
2022/05/06 13:38:32;;;;;;;9.50;8.80;;;26.60;36.50;;;;;;4842750;29;20448;-82